Time;durP1;ratioP1;P1;durP2;ratioP2;P2;SDS_P1;SDS_P2;PMS_P1;PMS_P2;Temp;Humidity;BMP_temperature;BMP_pressure;BME280_temperature;BME280_humidity;BME280_pressure;Samples;Min_cycle;Max_cycle;Signal;HPM_P1;HPM_P2
2022/08/03 00:02:17;;;;;;;;;;;;;;;22.85;54.81;101427.56;5004802;28;19932;-90
2022/08/03 00:04:43;;;;;;;;;;;;;;;22.85;54.66;101424.88;5022387;28;19963;-89
2022/08/03 00:07:08;;;;;;;;;;;;;;;22.85;54.44;101428.41;5026092;28;19964;-89
2022/08/03 00:09:33;;;;;;;;;;;;;;;22.84;54.92;101426.69;5026246;28;19964;-89
2022/08/03 00:11:58;;;;;;;;;;;;;;;22.78;56.30;101420.97;5026110;28;20008;-89
2022/08/03 00:14:23;;;;;;;;;;;;;;;22.55;55.66;101423.69;5022020;28;19960;-90
2022/08/03 00:16:48;;;;;;;;;;;;;;;22.39;56.84;101421.41;5025476;28;19961;-89
2022/08/03 00:19:14;;;;;;;;;;;;;;;22.27;56.17;101426.91;5024887;28;20614;-89
2022/08/03 00:21:39;;;;;;;;;;;;;;;22.29;55.90;101422.22;5018441;28;19968;-90
2022/08/03 00:24:04;;;;;;;;;;;;;;;22.34;57.17;101417.38;5025008;28;19932;-89
2022/08/03 00:26:30;;;;;;;;;;;;;;;22.17;56.37;101418.69;5026245;28;20355;-89
2022/08/03 00:28:55;;;;;;;;;;;;;;;22.13;56.35;101423.47;5026625;28;19944;-90
2022/08/03 00:31:20;;;;;;;;;;;;;;;22.00;58.10;101421.84;5023477;28;19940;-89
2022/08/03 00:33:46;;;;;;;;;;;;;;;21.77;57.18;101419.13;5012071;28;19921;-88
2022/08/03 00:36:11;;;;;;;;;;;;;;;21.81;57.22;101420.59;5016063;28;19925;-89
2022/08/03 00:38:36;;;;;;;;;;;;;;;21.86;57.31;101414.84;5024427;28;19924;-90
2022/08/03 00:41:01;;;;;;;;;;;;;;;21.90;56.87;101411.78;5028974;28;19963;-89
2022/08/03 00:43:26;;;;;;;;;;;;;;;21.87;56.63;101408.50;5008799;28;19917;-89
2022/08/03 00:45:53;;;;;;;;;;;;;;;21.68;58.53;101411.75;5026276;28;19920;-88
2022/08/03 00:48:18;;;;;;;;;;;;;;;21.63;58.10;101405.88;5005047;28;20688;-88
2022/08/03 00:50:43;;;;;;;;;;;;;;;21.61;57.82;101402.47;5028777;28;19924;-90
2022/08/03 00:53:13;;;;;;;;;;;;;;;21.59;57.84;101407.97;5026036;28;19964;-89
2022/08/03 00:55:42;;;;;;;;;;;;;;;21.41;59.23;101408.53;5032759;28;20384;-89
2022/08/03 00:58:09;;;;;;;;;;;;;;;21.23;61.79;101405.38;5027600;28;20276;-89
2022/08/03 01:00:37;;;;;;;;;;;;;;;21.04;61.02;101400.53;5030362;28;20082;-90
2022/08/03 01:03:02;;;;;;;;;;;;;;;21.09;59.71;101406.41;5027761;28;20081;-89
2022/08/03 01:05:28;;;;;;;;;;;;;;;21.23;58.53;101400.00;5025554;28;19979;-89
2022/08/03 01:07:56;;;;;;;;;;;;;;;21.33;58.12;101396.53;5004362;28;19929;-89
2022/08/03 01:10:37;;;;;;;;;;;;;;;21.18;59.40;101392.28;5006713;28;19996;-90
2022/08/03 01:13:06;;;;;;;;;;;;;;;20.95;60.94;101394.03;5017248;28;19924;-89
2022/08/03 01:15:40;;;;;;;;;;;;;;;20.91;59.95;101394.34;5008380;28;19936;-90
2022/08/03 01:18:09;;;;;;;;;;;;;;;20.93;59.30;101392.41;5028192;28;19917;-90
2022/08/03 01:20:35;;;;;;;;;;;;;;;21.06;60.94;101398.56;5023848;28;19918;-89
2022/08/03 01:23:19;;;;;;;;;;;;;;;21.20;60.23;101395.69;5026604;28;19940;-89
2022/08/03 01:25:48;;;;;;;;;;;;;;;21.34;58.18;101392.84;5008740;28;19964;-89
2022/08/03 01:28:32;;;;;;;;;;;;;;;21.31;60.66;101392.22;5009576;28;19910;-89
2022/08/03 01:31:00;;;;;;;;;;;;;;;21.23;58.75;101387.41;5011438;28;19923;-89
2022/08/03 01:33:32;;;;;;;;;;;;;;;21.24;58.03;101388.25;5028310;28;19925;-89
2022/08/03 01:36:06;;;;;;;;;;;;;;;21.24;58.24;101385.56;5010696;28;19921;-89
2022/08/03 01:38:32;;;;;;;;;;;;;;;21.23;58.01;101382.03;5028109;28;20415;-90
2022/08/03 01:41:03;;;;;;;;;;;;;;;21.23;57.98;101381.19;5026557;28;19940;-91
2022/08/03 01:43:29;;;;;;;;;;;;;;;21.15;59.15;101392.50;5012646;28;19928;-90
2022/08/03 01:45:56;;;;;;;;;;;;;;;20.85;59.32;101377.72;5028686;28;19917;-89
2022/08/03 01:48:21;;;;;;;;;;;;;;;20.69;59.48;101378.97;5025376;28;19928;-89
2022/08/03 01:50:47;;;;;;;;;;;;;;;20.63;59.35;101382.97;5024335;28;20309;-89
2022/08/03 01:53:14;;;;;;;;;;;;;;;20.72;59.20;101382.28;5027670;28;19992;-89
2022/08/03 01:55:39;;;;;;;;;;;;;;;20.75;59.20;101384.75;5030123;28;19925;-89
2022/08/03 01:58:07;;;;;;;;;;;;;;;20.82;59.29;101380.63;5027904;28;20292;-91
2022/08/03 02:00:35;;;;;;;;;;;;;;;20.91;58.88;101373.72;5010697;28;19917;-90
2022/08/03 02:03:03;;;;;;;;;;;;;;;20.97;58.66;101375.06;5027872;28;19972;-87
2022/08/03 02:05:29;;;;;;;;;;;;;;;20.98;58.49;101380.31;5020715;28;19933;-89
2022/08/03 02:07:55;;;;;;;;;;;;;;;20.99;58.95;101373.16;5025663;28;19924;-89
2022/08/03 02:10:21;;;;;;;;;;;;;;;20.82;59.07;101377.94;5026681;28;19921;-90
2022/08/03 02:12:48;;;;;;;;;;;;;;;20.77;58.95;101377.44;5026307;28;20381;-89
2022/08/03 02:15:14;;;;;;;;;;;;;;;20.56;59.89;101376.31;5022161;28;19917;-90
2022/08/03 02:17:40;;;;;;;;;;;;;;;20.60;59.73;101378.66;5022605;28;19918;-88
2022/08/03 02:20:07;;;;;;;;;;;;;;;20.64;59.62;101376.63;5026235;28;19954;-89
2022/08/03 02:22:32;;;;;;;;;;;;;;;20.55;59.53;101372.78;5024635;28;20003;-90
2022/08/03 02:24:57;;;;;;;;;;;;;;;20.59;59.67;101376.97;5024958;28;20497;-89
2022/08/03 02:27:24;;;;;;;;;;;;;;;20.66;59.19;101377.38;5027769;28;19936;-90
2022/08/03 02:29:55;;;;;;;;;;;;;;;20.68;59.21;101374.56;5025764;28;20375;-90
2022/08/03 02:32:27;;;;;;;;;;;;;;;20.65;58.91;101370.28;5009885;28;19924;-89
2022/08/03 02:34:54;;;;;;;;;;;;;;;20.49;59.73;101375.94;5023104;28;19924;-89
2022/08/03 02:37:21;;;;;;;;;;;;;;;20.47;59.32;101368.91;5025293;28;19925;-90
2022/08/03 02:39:48;;;;;;;;;;;;;;;20.49;59.62;101367.88;5024023;28;19927;-90
2022/08/03 02:42:14;;;;;;;;;;;;;;;20.50;60.64;101364.22;5027091;28;20000;-89
2022/08/03 02:44:40;;;;;;;;;;;;;;;20.36;60.77;101367.88;5028842;28;20328;-88
2022/08/03 02:47:08;;;;;;;;;;;;;;;20.22;60.49;101359.09;5011035;28;19925;-89
2022/08/03 02:49:34;;;;;;;;;;;;;;;20.08;60.73;101363.63;5028853;28;20372;-90
2022/08/03 02:52:00;;;;;;;;;;;;;;;20.04;61.16;101361.28;5022916;28;19931;-90
2022/08/03 02:54:26;;;;;;;;;;;;;;;20.04;60.54;101372.03;5016233;28;19945;-90
2022/08/03 02:56:53;;;;;;;;;;;;;;;19.87;63.60;101365.19;5021762;28;20376;-90
2022/08/03 02:59:19;;;;;;;;;;;;;;;19.70;63.93;101361.00;5027076;28;19921;-90
2022/08/03 03:01:44;;;;;;;;;;;;;;;19.58;64.13;101353.75;5023332;28;19928;-90
2022/08/03 03:04:10;;;;;;;;;;;;;;;19.54;64.97;101357.66;5026166;28;19921;-91
2022/08/03 03:06:36;;;;;;;;;;;;;;;19.55;63.42;101360.22;5026227;28;19925;-89
2022/08/03 03:09:02;;;;;;;;;;;;;;;19.69;61.80;101353.91;5026846;28;19940;-89
2022/08/03 03:11:28;;;;;;;;;;;;;;;19.82;61.90;101361.97;5028324;28;19917;-90
2022/08/03 03:13:55;;;;;;;;;;;;;;;19.93;61.09;101359.38;5018868;28;19925;-90
2022/08/03 03:16:21;;;;;;;;;;;;;;;20.02;61.21;101347.97;5006055;28;19927;-89
2022/08/03 03:18:46;;;;;;;;;;;;;;;20.09;60.89;101359.13;5026121;28;19917;-88
2022/08/03 03:21:13;;;;;;;;;;;;;;;20.11;60.55;101355.38;5020232;28;19982;-88
2022/08/03 03:23:39;;;;;;;;;;;;;;;20.09;62.84;101362.66;5024336;28;19921;-89
2022/08/03 03:26:05;;;;;;;;;;;;;;;20.00;60.84;101362.47;5027549;28;19925;-90
2022/08/03 03:28:31;;;;;;;;;;;;;;;20.06;62.51;101359.38;5007938;28;20473;-89
2022/08/03 03:30:56;;;;;;;;;;;;;;;20.05;63.77;101357.63;5023961;28;20000;-89
2022/08/03 03:33:22;;;;;;;;;;;;;;;20.02;61.32;101352.50;5023810;28;19921;-89
2022/08/03 03:35:48;;;;;;;;;;;;;;;20.01;61.87;101353.47;5024841;28;19931;-89
2022/08/03 03:38:13;;;;;;;;;;;;;;;19.95;61.74;101365.47;5027143;28;19925;-89
2022/08/03 03:40:38;;;;;;;;;;;;;;;19.90;61.01;101362.25;5024221;28;19928;-88
2022/08/03 03:43:07;;;;;;;;;;;;;;;19.84;62.65;101360.03;5009307;28;19921;-89
2022/08/03 03:45:33;;;;;;;;;;;;;;;19.83;62.09;101361.84;5020904;28;19942;-89
2022/08/03 03:48:00;;;;;;;;;;;;;;;19.83;63.30;101369.03;5027603;28;19944;-89
2022/08/03 03:50:26;;;;;;;;;;;;;;;19.82;62.94;101361.97;5023097;28;19995;-89
2022/08/03 03:52:51;;;;;;;;;;;;;;;19.77;62.66;101356.03;5026885;28;19932;-89
2022/08/03 03:55:17;;;;;;;;;;;;;;;19.77;63.50;101356.03;5026395;28;19917;-89
2022/08/03 03:57:42;;;;;;;;;;;;;;;19.79;61.73;101356.81;5026740;28;20229;-89
2022/08/03 04:00:08;;;;;;;;;;;;;;;19.81;62.64;101361.09;5024744;28;20273;-89
2022/08/03 04:02:33;;;;;;;;;;;;;;;19.81;62.33;101360.22;5019903;28;19971;-89
2022/08/03 04:10:58;;;;;;;;;;;;;;;19.64;63.42;101347.16;5029646;28;19928;-89
2022/08/03 04:13:26;;;;;;;;;;;;;;;19.56;62.90;101350.34;5022758;28;20028;-89
2022/08/03 04:15:53;;;;;;;;;;;;;;;19.53;62.65;101350.53;5026885;28;20358;-88
2022/08/03 04:18:18;;;;;;;;;;;;;;;19.47;63.07;101354.50;5030428;28;19917;-89
2022/08/03 04:20:45;;;;;;;;;;;;;;;19.51;62.96;101344.44;5027005;28;19924;-88
2022/08/03 04:23:12;;;;;;;;;;;;;;;19.60;62.30;101349.19;5031578;28;20018;-88
2022/08/03 04:25:39;;;;;;;;;;;;;;;19.71;62.35;101356.47;5021965;28;20272;-88
2022/08/03 04:28:04;;;;;;;;;;;;;;;19.79;62.13;101354.97;5029262;28;19918;-88
2022/08/03 04:30:30;;;;;;;;;;;;;;;19.79;62.25;101356.81;5025520;28;19924;-89
2022/08/03 04:32:56;;;;;;;;;;;;;;;19.79;63.11;101362.19;5027243;28;19928;-89
2022/08/03 04:35:22;;;;;;;;;;;;;;;19.66;63.62;101356.81;5023572;28;20272;-88
2022/08/03 04:37:50;;;;;;;;;;;;;;;19.61;62.76;101364.31;5028385;28;19921;-88
2022/08/03 04:40:19;;;;;;;;;;;;;;;19.63;62.70;101359.69;5027309;28;20007;-88
2022/08/03 04:42:45;;;;;;;;;;;;;;;19.65;63.09;101359.59;5030376;28;19917;-88
2022/08/03 04:45:11;;;;;;;;;;;;;;;19.57;64.02;101360.09;5025925;28;19956;-88
2022/08/03 04:47:37;;;;;;;;;;;;;;;19.51;64.39;101363.22;5012620;28;20035;-88
2022/08/03 04:50:03;;;;;;;;;;;;;;;19.52;64.64;101368.47;5013188;28;20399;-88
2022/08/03 04:52:29;;;;;;;;;;;;;;;19.55;65.97;101367.41;5029749;28;19921;-88
2022/08/03 04:54:54;;;;;;;;;;;;;;;19.51;64.97;101368.56;5031408;28;19917;-88
2022/08/03 04:57:19;;;;;;;;;;;;;;;19.46;64.85;101370.72;5027285;28;19925;-88
2022/08/03 04:59:44;;;;;;;;;;;;;;;19.51;66.40;101384.66;5012158;28;20332;-88
2022/08/03 05:02:09;;;;;;;;;;;;;;;19.59;64.51;101377.81;5024734;28;20268;-88
2022/08/03 05:04:36;;;;;;;;;;;;;;;19.66;64.92;101377.41;5010733;28;19917;-88
2022/08/03 05:07:02;;;;;;;;;;;;;;;19.71;65.56;101383.31;5026284;28;20380;-88
2022/08/03 05:09:27;;;;;;;;;;;;;;;19.74;64.53;101383.97;5026560;28;20002;-88
2022/08/03 05:11:52;;;;;;;;;;;;;;;19.85;64.82;101381.38;5029006;28;19927;-87
2022/08/03 05:14:17;;;;;;;;;;;;;;;19.95;63.99;101386.09;5023239;28;20376;-88
2022/08/03 05:16:43;;;;;;;;;;;;;;;20.03;63.40;101387.28;5023621;28;19929;-89
2022/08/03 05:19:08;;;;;;;;;;;;;;;20.11;63.26;101389.41;5024726;28;19979;-88
2022/08/03 05:21:33;;;;;;;;;;;;;;;20.18;64.25;101397.88;5027668;28;19940;-88
2022/08/03 05:23:58;;;;;;;;;;;;;;;20.24;63.83;101390.25;5029244;28;19972;-89
2022/08/03 05:26:24;;;;;;;;;;;;;;;20.29;63.44;101390.78;5005081;28;19913;-88
2022/08/03 05:28:49;;;;;;;;;;;;;;;20.36;63.66;101399.25;5023452;28;20336;-89
2022/08/03 05:31:14;;;;;;;;;;;;;;;20.39;64.09;101391.81;5021009;28;19913;-88
2022/08/03 05:33:39;;;;;;;;;;;;;;;20.44;64.50;101396.88;5022711;28;20324;-89
2022/08/03 05:36:05;;;;;;;;;;;;;;;20.48;64.63;101397.53;5006462;28;19925;-87
2022/08/03 05:38:31;;;;;;;;;;;;;;;20.54;64.21;101389.03;5025025;28;19917;-88
2022/08/03 05:40:56;;;;;;;;;;;;;;;20.61;63.61;101395.66;5027675;28;19924;-89
2022/08/03 05:43:22;;;;;;;;;;;;;;;20.64;63.58;101396.28;5026345;28;19917;-88
2022/08/03 05:45:47;;;;;;;;;;;;;;;20.73;62.22;101399.28;5025014;28;19975;-89
2022/08/03 05:48:12;;;;;;;;;;;;;;;20.81;63.89;101410.31;5026570;28;19913;-88
2022/08/03 05:50:37;;;;;;;;;;;;;;;20.89;63.89;101406.09;5023325;28;20364;-88
2022/08/03 05:53:03;;;;;;;;;;;;;;;20.99;65.13;101408.94;5028185;28;19921;-88
2022/08/03 05:55:28;;;;;;;;;;;;;;;21.07;61.29;101413.72;5023887;28;19921;-88
2022/08/03 05:57:53;;;;;;;;;;;;;;;21.08;61.62;101418.16;5009280;28;19925;-89
2022/08/03 06:00:18;;;;;;;;;;;;;;;21.12;61.97;101414.22;5014101;28;19917;-88
2022/08/03 06:02:44;;;;;;;;;;;;;;;21.18;63.68;101410.25;5027746;28;20403;-88
2022/08/03 06:05:09;;;;;;;;;;;;;;;21.22;63.80;101411.75;5017680;28;19932;-89
2022/08/03 06:07:34;;;;;;;;;;;;;;;21.26;63.84;101405.97;5029143;28;20141;-88
2022/08/03 06:10:03;;;;;;;;;;;;;;;21.33;63.90;101407.28;5019524;28;19924;-87
2022/08/03 06:12:28;;;;;;;;;;;;;;;21.39;64.05;101411.31;5005469;28;20019;-88
2022/08/03 06:14:53;;;;;;;;;;;;;;;21.46;63.28;101406.34;5023950;28;19967;-87
2022/08/03 06:17:18;;;;;;;;;;;;;;;21.51;65.01;101413.09;5022920;28;19967;-89
2022/08/03 06:19:44;;;;;;;;;;;;;;;21.57;63.58;101409.91;5025537;28;20475;-89
2022/08/03 06:22:09;;;;;;;;;;;;;;;21.67;64.76;101412.75;5023588;28;20739;-89
2022/08/03 06:24:34;;;;;;;;;;;;;;;21.78;63.69;101406.53;5023184;28;19928;-88
2022/08/03 06:26:59;;;;;;;;;;;;;;;21.85;63.75;101414.00;5024372;28;19920;-89
2022/08/03 06:29:24;;;;;;;;;;;;;;;21.93;63.83;101412.53;5006417;28;19964;-88
2022/08/03 06:31:49;;;;;;;;;;;;;;;22.02;63.45;101414.50;5025255;28;19917;-88
2022/08/03 06:34:15;;;;;;;;;;;;;;;22.11;63.67;101419.16;5025933;28;19917;-89
2022/08/03 06:36:40;;;;;;;;;;;;;;;22.21;62.70;101409.41;5024512;28;19937;-89
2022/08/03 06:39:06;;;;;;;;;;;;;;;22.29;62.40;101414.16;5024013;28;19933;-88
2022/08/03 06:41:31;;;;;;;;;;;;;;;22.36;62.31;101420.78;5020807;28;20376;-88
2022/08/03 06:43:56;;;;;;;;;;;;;;;22.41;62.06;101411.34;5026135;28;19917;-88
2022/08/03 06:46:22;;;;;;;;;;;;;;;22.49;61.80;101418.81;5022658;28;19917;-88
2022/08/03 06:48:47;;;;;;;;;;;;;;;22.57;61.80;101421.75;5024358;28;19924;-90
2022/08/03 06:51:13;;;;;;;;;;;;;;;22.74;61.49;101424.88;5026385;28;19948;-89
2022/08/03 06:53:38;;;;;;;;;;;;;;;22.82;61.30;101417.88;5008629;28;19932;-89
2022/08/03 06:56:04;;;;;;;;;;;;;;;22.92;61.23;101424.25;5025669;28;19929;-87
2022/08/03 06:58:29;;;;;;;;;;;;;;;22.99;60.76;101427.31;5025412;28;20008;-88
2022/08/03 07:00:54;;;;;;;;;;;;;;;23.08;61.08;101426.53;5018783;28;19925;-88
2022/08/03 07:03:19;;;;;;;;;;;;;;;23.33;60.43;101429.88;5030325;28;19948;-89
2022/08/03 07:05:46;;;;;;;;;;;;;;;23.49;59.57;101429.41;5008792;28;19973;-88
2022/08/03 07:08:11;;;;;;;;;;;;;;;23.42;59.67;101429.09;5021667;28;19971;-88
2022/08/03 07:10:36;;;;;;;;;;;;;;;23.46;59.25;101432.38;5025167;28;20160;-88
2022/08/03 07:13:02;;;;;;;;;;;;;;;23.53;59.42;101434.41;5010355;28;19967;-88
2022/08/03 07:15:27;;;;;;;;;;;;;;;23.67;59.44;101433.25;5024545;28;19935;-88
2022/08/03 07:17:52;;;;;;;;;;;;;;;23.81;58.81;101435.63;5004031;28;20417;-88
2022/08/03 07:20:18;;;;;;;;;;;;;;;23.84;58.76;101434.53;5025261;28;19924;-89
2022/08/03 07:22:43;;;;;;;;;;;;;;;23.86;58.25;101438.78;5026446;28;19925;-88
2022/08/03 07:25:09;;;;;;;;;;;;;;;23.77;58.07;101439.56;5025383;28;19921;-88
2022/08/03 07:27:34;;;;;;;;;;;;;;;23.79;58.14;101444.88;5025061;28;19925;-89
2022/08/03 07:29:59;;;;;;;;;;;;;;;23.91;58.27;101438.38;5023576;28;20427;-88
2022/08/03 07:32:25;;;;;;;;;;;;;;;24.09;57.49;101447.59;5024663;28;19917;-89
2022/08/03 07:34:51;;;;;;;;;;;;;;;24.23;57.34;101442.81;5025053;28;19917;-89
2022/08/03 07:37:16;;;;;;;;;;;;;;;24.33;57.09;101441.84;5025755;28;20438;-88
2022/08/03 07:39:41;;;;;;;;;;;;;;;24.50;56.55;101442.25;5028132;28;19917;-88
2022/08/03 07:42:07;;;;;;;;;;;;;;;24.66;56.01;101443.41;5033137;28;20003;-88
2022/08/03 07:44:32;;;;;;;;;;;;;;;24.96;55.69;101444.34;5037516;28;20284;-88
2022/08/03 07:46:57;;;;;;;;;;;;;;;25.38;53.92;101436.00;5034461;28;20004;-88
2022/08/03 07:49:22;;;;;;;;;;;;;;;25.82;53.42;101442.66;5024723;28;19932;-87
2022/08/03 07:52:46;;;;;;;;;;;;;;;26.24;52.82;101438.66;5034392;28;19916;-87
2022/08/03 07:54:33;;;;;;;;;;;;;;;26.64;51.49;101438.38;5023955;28;19917;-88
2022/08/03 07:56:58;;;;;;;;;;;;;;;27.09;51.46;101437.50;5009484;28;19925;-88
2022/08/03 07:59:23;;;;;;;;;;;;;;;27.60;50.59;101436.78;5031915;28;19936;-88
2022/08/03 08:01:51;;;;;;;;;;;;;;;27.86;48.94;101428.69;5027833;28;19917;-88
2022/08/03 08:04:17;;;;;;;;;;;;;;;28.16;48.35;101430.03;5029727;28;19928;-88
2022/08/03 08:06:42;;;;;;;;;;;;;;;28.16;47.72;101435.47;5034135;28;19925;-88
2022/08/03 08:09:07;;;;;;;;;;;;;;;28.23;47.02;101432.97;5026636;28;20367;-87
2022/08/03 08:11:32;;;;;;;;;;;;;;;28.33;46.54;101427.41;5027718;28;19917;-89
2022/08/03 08:14:01;;;;;;;;;;;;;;;28.46;46.37;101436.84;5027371;28;19924;-88
2022/08/03 08:16:26;;;;;;;;;;;;;;;28.53;45.51;101431.59;5012389;28;20396;-88
2022/08/03 08:18:51;;;;;;;;;;;;;;;28.90;44.75;101436.63;5027807;28;19917;-88
2022/08/03 08:21:17;;;;;;;;;;;;;;;29.21;44.59;101434.16;5029801;28;19947;-88
2022/08/03 08:23:42;;;;;;;;;;;;;;;29.34;45.02;101430.09;5034747;28;20315;-87
2022/08/03 08:26:07;;;;;;;;;;;;;;;29.68;44.05;101432.66;5028239;28;19931;-88
2022/08/03 08:28:32;;;;;;;;;;;;;;;29.89;42.84;101438.44;5026084;28;19926;-88
2022/08/03 08:30:57;;;;;;;;;;;;;;;30.43;41.37;101438.59;5028920;28;19924;-88
2022/08/03 08:33:23;;;;;;;;;;;;;;;30.73;42.52;101436.97;5029362;28;19956;-87
2022/08/03 08:35:48;;;;;;;;;;;;;;;30.62;40.33;101434.59;5028383;28;20305;-88
2022/08/03 08:38:13;;;;;;;;;;;;;;;30.83;41.77;101423.09;5017595;28;19916;-88
2022/08/03 08:40:38;;;;;;;;;;;;;;;31.25;39.16;101429.97;5026487;28;19952;-87
2022/08/03 08:43:03;;;;;;;;;;;;;;;31.38;39.18;101434.81;5028586;28;20292;-88
2022/08/03 08:45:29;;;;;;;;;;;;;;;31.68;38.78;101433.03;5026573;28;20012;-88
2022/08/03 08:47:56;;;;;;;;;;;;;;;32.11;38.98;101428.66;5033141;28;19932;-88
2022/08/03 08:50:21;;;;;;;;;;;;;;;32.26;38.15;101432.22;5022769;28;19917;-87
2022/08/03 08:52:47;;;;;;;;;;;;;;;32.72;35.97;101429.25;5026651;28;19932;-88
2022/08/03 08:55:15;;;;;;;;;;;;;;;32.81;36.20;101426.41;5025716;28;19921;-88
2022/08/03 08:57:43;;;;;;;;;;;;;;;33.19;36.44;101424.31;5027199;28;19921;-88
2022/08/03 09:00:12;;;;;;;;;;;;;;;33.29;35.84;101426.72;5026908;28;19921;-88
2022/08/03 09:02:38;;;;;;;;;;;;;;;32.81;35.07;101431.91;5031622;28;19925;-88
2022/08/03 09:05:03;;;;;;;;;;;;;;;32.87;34.66;101431.13;5029211;28;20337;-88
2022/08/03 09:07:28;;;;;;;;;;;;;;;33.27;35.91;101429.66;5030215;28;19967;-89
2022/08/03 09:09:54;;;;;;;;;;;;;;;33.06;33.41;101435.13;5030968;28;20285;-88
2022/08/03 09:12:19;;;;;;;;;;;;;;;33.05;34.27;101426.06;5027282;28;19921;-88
2022/08/03 09:14:45;;;;;;;;;;;;;;;33.07;34.86;101420.41;5027339;28;20007;-88
2022/08/03 09:17:10;;;;;;;;;;;;;;;32.97;34.22;101421.59;5021206;28;19921;-88
2022/08/03 09:19:35;;;;;;;;;;;;;;;33.56;34.31;101430.56;5029941;28;19917;-88
2022/08/03 09:22:10;;;;;;;;;;;;;;;34.39;33.57;101426.06;5032913;28;20016;-88
2022/08/03 09:24:35;;;;;;;;;;;;;;;34.66;32.58;101427.06;5022143;28;21607;-88
2022/08/03 09:27:00;;;;;;;;;;;;;;;34.42;32.43;101426.50;5027260;28;20327;-88
2022/08/03 09:29:30;;;;;;;;;;;;;;;34.28;33.37;101434.91;5026658;28;19921;-88
2022/08/03 09:32:00;;;;;;;;;;;;;;;34.29;31.36;101431.09;5023045;28;20395;-88
2022/08/03 09:34:27;;;;;;;;;;;;;;;33.60;33.20;101427.25;5028688;28;19917;-88
2022/08/03 09:36:53;;;;;;;;;;;;;;;33.15;33.37;101428.47;5021735;28;20439;-89
2022/08/03 09:39:19;;;;;;;;;;;;;;;32.78;33.50;101429.53;5028217;28;20008;-88
2022/08/03 09:42:03;;;;;;;;;;;;;;;32.49;35.21;101429.41;5022704;28;20012;-88
2022/08/03 09:44:40;;;;;;;;;;;;;;;32.59;35.38;101422.78;5026491;28;19917;-88
2022/08/03 09:47:06;;;;;;;;;;;;;;;32.83;33.95;101436.16;5025116;28;19964;-88
2022/08/03 09:49:31;;;;;;;;;;;;;;;32.85;34.80;101428.56;5011290;28;19965;-88
2022/08/03 09:51:59;;;;;;;;;;;;;;;32.46;35.48;101427.06;5026037;28;19920;-88
2022/08/03 09:54:28;;;;;;;;;;;;;;;32.17;35.15;101430.63;5030213;28;20373;-88
2022/08/03 09:56:53;;;;;;;;;;;;;;;32.11;35.94;101428.66;5028118;28;20384;-88
2022/08/03 09:59:26;;;;;;;;;;;;;;;32.11;34.77;101434.13;5022680;28;19921;-87
2022/08/03 10:01:52;;;;;;;;;;;;;;;31.95;36.23;101437.91;5026456;28;20383;-88
2022/08/03 10:04:17;;;;;;;;;;;;;;;31.85;35.26;101431.88;5027737;28;19921;-88
2022/08/03 10:06:44;;;;;;;;;;;;;;;31.97;36.34;101430.34;5026706;28;19936;-89
2022/08/03 10:09:11;;;;;;;;;;;;;;;32.45;36.24;101422.63;5030578;28;19921;-88
2022/08/03 10:11:37;;;;;;;;;;;;;;;32.87;36.47;101429.22;5026822;28;19917;-88
2022/08/03 10:14:03;;;;;;;;;;;;;;;32.86;34.94;101430.25;5021611;28;20296;-88
2022/08/03 10:16:33;;;;;;;;;;;;;;;32.84;34.78;101431.53;5007703;28;19928;-88
2022/08/03 10:18:58;;;;;;;;;;;;;;;32.76;35.09;101427.84;5020514;28;20432;-88
2022/08/03 10:21:26;;;;;;;;;;;;;;;33.11;34.72;101428.06;5010415;28;20075;-89
2022/08/03 10:23:53;;;;;;;;;;;;;;;32.71;33.29;101421.25;5026058;28;20391;-88
2022/08/03 10:26:21;;;;;;;;;;;;;;;32.73;35.14;101425.47;5029602;28;20311;-89
2022/08/03 10:28:48;;;;;;;;;;;;;;;33.17;34.33;101415.44;5025835;28;19928;-88
2022/08/03 10:31:15;;;;;;;;;;;;;;;33.54;33.56;101410.75;5025000;28;19925;-88
2022/08/03 10:33:42;;;;;;;;;;;;;;;33.41;34.03;101405.97;5025271;28;19918;-88
2022/08/03 10:36:07;;;;;;;;;;;;;;;33.34;33.18;101411.38;5021867;28;19944;-88
2022/08/03 10:38:51;;;;;;;;;;;;;;;33.12;32.98;101406.97;5023707;28;20388;-88
2022/08/03 10:41:18;;;;;;;;;;;;;;;33.46;32.93;101414.47;5010353;28;19928;-89
2022/08/03 10:44:05;;;;;;;;;;;;;;;33.64;33.25;101403.84;5009976;28;19917;-88
2022/08/03 10:46:32;;;;;;;;;;;;;;;34.09;32.80;101403.53;5020619;28;20288;-88
2022/08/03 10:48:57;;;;;;;;;;;;;;;34.37;30.97;101398.84;5005400;28;20364;-89
2022/08/03 10:51:23;;;;;;;;;;;;;;;34.54;32.08;101395.75;5020862;28;19917;-88
2022/08/03 10:53:48;;;;;;;;;;;;;;;34.61;31.56;101391.13;5027468;28;20372;-88
2022/08/03 10:59:16;;;;;;;;;;;;;;;35.14;31.14;101385.75;5020894;28;19932;-90
2022/08/03 11:01:45;;;;;;;;;;;;;;;35.01;31.42;101387.41;5025581;28;20284;-88
2022/08/03 11:04:14;;;;;;;;;;;;;;;35.22;30.25;101380.91;5019661;28;19921;-87
2022/08/03 11:06:39;;;;;;;;;;;;;;;35.17;29.80;101385.34;5022135;28;19917;-87
2022/08/03 11:09:15;;;;;;;;;;;;;;;35.00;30.01;101385.72;5028456;28;20462;-88
2022/08/03 11:11:42;;;;;;;;;;;;;;;35.15;30.01;101380.03;5026118;28;19917;-88
2022/08/03 11:14:09;;;;;;;;;;;;;;;35.36;30.68;101368.00;5003196;28;19925;-88
2022/08/03 11:16:43;;;;;;;;;;;;;;;35.52;30.74;101375.81;5025727;28;19925;-88
2022/08/03 11:19:10;;;;;;;;;;;;;;;35.71;30.54;101365.84;5029242;28;20245;-88
2022/08/03 11:21:50;;;;;;;;;;;;;;;35.87;28.68;101375.56;5027888;28;19917;-88
2022/08/03 11:24:34;;;;;;;;;;;;;;;35.50;28.97;101369.69;5025760;28;19995;-88
2022/08/03 11:27:17;;;;;;;;;;;;;;;35.36;29.37;101384.50;5020895;28;19983;-88
2022/08/03 11:30:03;;;;;;;;;;;;;;;35.39;29.82;101372.22;5022102;28;19936;-87
2022/08/03 11:32:37;;;;;;;;;;;;;;;35.64;29.32;101377.94;5015216;28;19921;-88
2022/08/03 11:35:09;;;;;;;;;;;;;;;35.41;29.56;101378.34;5020486;28;20383;-87
2022/08/03 11:37:35;;;;;;;;;;;;;;;35.54;29.55;101378.38;5021382;28;19982;-87
2022/08/03 11:40:01;;;;;;;;;;;;;;;35.90;29.47;101371.53;5026397;28;19921;-87
2022/08/03 11:42:27;;;;;;;;;;;;;;;36.25;29.24;101367.41;5023606;28;19925;-88
2022/08/03 11:44:54;;;;;;;;;;;;;;;36.06;28.29;101367.50;5025171;28;19910;-87
2022/08/03 11:47:20;;;;;;;;;;;;;;;36.37;28.83;101372.22;5007150;28;20402;-87
2022/08/03 11:49:46;;;;;;;;;;;;;;;36.43;27.82;101375.00;5026475;28;19932;-87
2022/08/03 11:52:11;;;;;;;;;;;;;;;36.51;28.21;101371.13;5029508;28;19975;-88
2022/08/03 11:54:37;;;;;;;;;;;;;;;36.59;28.57;101362.59;5009561;28;19927;-88
2022/08/03 11:57:02;;;;;;;;;;;;;;;36.68;27.63;101366.78;5021501;28;19968;-89
2022/08/03 11:59:34;;;;;;;;;;;;;;;36.50;28.45;101378.53;5018525;28;19913;-88
2022/08/03 12:02:06;;;;;;;;;;;;;;;36.51;27.52;101371.13;5023718;28;19921;-88
2022/08/03 12:04:48;;;;;;;;;;;;;;;36.56;28.21;101381.47;5004379;28;20422;-88
2022/08/03 12:07:13;;;;;;;;;;;;;;;36.54;28.34;101384.47;5020812;28;20359;-88
2022/08/03 12:09:40;;;;;;;;;;;;;;;36.75;27.34;101378.63;5020712;28;19925;-88
2022/08/03 12:12:05;;;;;;;;;;;;;;;36.68;26.10;101372.28;5023392;28;20444;-88
2022/08/03 12:14:31;;;;;;;;;;;;;;;36.50;27.57;101381.28;5024952;28;19920;-88
2022/08/03 12:16:56;;;;;;;;;;;;;;;36.40;26.96;101378.13;5022179;28;19947;-88
2022/08/03 12:19:21;;;;;;;;;;;;;;;36.42;28.44;101381.53;5004118;28;19921;-87
2022/08/03 12:21:47;;;;;;;;;;;;;;;36.74;28.09;101382.41;5028590;28;19917;-89
2022/08/03 12:24:13;;;;;;;;;;;;;;;36.78;27.13;101377.31;5010530;28;19925;-89
2022/08/03 12:26:48;;;;;;;;;;;;;;;36.92;27.66;101380.88;5012024;28;19927;-88
2022/08/03 12:29:17;;;;;;;;;;;;;;;36.89;27.53;101384.91;5019029;28;20419;-89
2022/08/03 12:31:43;;;;;;;;;;;;;;;36.99;27.44;101379.75;5031932;28;20348;-89
2022/08/03 12:34:08;;;;;;;;;;;;;;;36.83;27.92;101371.13;5008921;28;20012;-88
2022/08/03 12:36:34;;;;;;;;;;;;;;;36.84;27.31;101370.94;5011029;28;19967;-88
2022/08/03 12:39:04;;;;;;;;;;;;;;;37.08;27.27;101376.72;5011374;28;19953;-88
2022/08/03 12:41:29;;;;;;;;;;;;;;;36.87;27.58;101380.66;5013509;28;20007;-89
2022/08/03 12:43:54;;;;;;;;;;;;;;;36.51;27.96;101376.63;5013387;28;20008;-89